sensor_id;sensor_type;location;lat;lon;timestamp;P1;durP1;ratioP1;P2;durP2;ratioP2
2502;SDS011;1262;50.918;6.922;2023-03-01T00:00:43;6.88;;;4.45;;
2502;SDS011;1262;50.918;6.922;2023-03-01T00:03:13;7.63;;;5.30;;
2502;SDS011;1262;50.918;6.922;2023-03-01T00:05:43;4.90;;;4.20;;
2502;SDS011;1262;50.918;6.922;2023-03-01T00:08:10;6.18;;;4.97;;
2502;SDS011;1262;50.918;6.922;2023-03-01T00:10:37;7.05;;;4.75;;
2502;SDS011;1262;50.918;6.922;2023-03-01T00:13:04;9.20;;;5.07;;
2502;SDS011;1262;50.918;6.922;2023-03-01T00:15:31;8.57;;;5.03;;
2502;SDS011;1262;50.918;6.922;2023-03-01T00:17:59;9.57;;;6.40;;
2502;SDS011;1262;50.918;6.922;2023-03-01T00:20:28;8.95;;;6.18;;
2502;SDS011;1262;50.918;6.922;2023-03-01T00:22:55;11.02;;;5.95;;
2502;SDS011;1262;50.918;6.922;2023-03-01T00:25:22;8.45;;;5.55;;
2502;SDS011;1262;50.918;6.922;2023-03-01T00:27:49;11.88;;;6.80;;
2502;SDS011;1262;50.918;6.922;2023-03-01T00:30:16;9.23;;;5.90;;
2502;SDS011;1262;50.918;6.922;2023-03-01T00:32:43;10.35;;;6.20;;
2502;SDS011;1262;50.918;6.922;2023-03-01T00:35:10;9.55;;;5.90;;
2502;SDS011;1262;50.918;6.922;2023-03-01T00:37:39;11.57;;;6.07;;
2502;SDS011;1262;50.918;6.922;2023-03-01T00:40:07;8.65;;;5.60;;
2502;SDS011;1262;50.918;6.922;2023-03-01T00:42:35;9.20;;;5.80;;
2502;SDS011;1262;50.918;6.922;2023-03-01T00:45:03;12.07;;;5.88;;
2502;SDS011;1262;50.918;6.922;2023-03-01T00:47:30;7.22;;;4.97;;
2502;SDS011;1262;50.918;6.922;2023-03-01T00:49:57;7.97;;;5.32;;
2502;SDS011;1262;50.918;6.922;2023-03-01T00:52:24;6.25;;;4.78;;
2502;SDS011;1262;50.918;6.922;2023-03-01T00:54:53;7.18;;;5.25;;
2502;SDS011;1262;50.918;6.922;2023-03-01T00:57:20;6.88;;;4.97;;
2502;SDS011;1262;50.918;6.922;2023-03-01T00:59:47;7.80;;;5.57;;
2502;SDS011;1262;50.918;6.922;2023-03-01T01:02:14;7.65;;;3.90;;
2502;SDS011;1262;50.918;6.922;2023-03-01T01:04:41;11.15;;;5.20;;
2502;SDS011;1262;50.918;6.922;2023-03-01T01:07:08;6.05;;;5.05;;
2502;SDS011;1262;50.918;6.922;2023-03-01T01:09:36;5.72;;;4.45;;
2502;SDS011;1262;50.918;6.922;2023-03-01T01:12:04;7.93;;;5.32;;
2502;SDS011;1262;50.918;6.922;2023-03-01T01:14:31;6.47;;;4.50;;
2502;SDS011;1262;50.918;6.922;2023-03-01T01:16:59;11.18;;;5.95;;
2502;SDS011;1262;50.918;6.922;2023-03-01T01:19:26;12.95;;;5.88;;
2502;SDS011;1262;50.918;6.922;2023-03-01T01:21:53;10.40;;;5.15;;
2502;SDS011;1262;50.918;6.922;2023-03-01T01:24:20;7.53;;;5.10;;
2502;SDS011;1262;50.918;6.922;2023-03-01T01:26:47;7.45;;;4.85;;
2502;SDS011;1262;50.918;6.922;2023-03-01T01:29:16;9.85;;;5.88;;
2502;SDS011;1262;50.918;6.922;2023-03-01T01:31:43;8.82;;;5.70;;
2502;SDS011;1262;50.918;6.922;2023-03-01T01:34:12;9.48;;;5.63;;
2502;SDS011;1262;50.918;6.922;2023-03-01T01:36:40;12.70;;;5.68;;
2502;SDS011;1262;50.918;6.922;2023-03-01T01:39:07;6.10;;;4.78;;
2502;SDS011;1262;50.918;6.922;2023-03-01T01:41:38;7.78;;;6.10;;
2502;SDS011;1262;50.918;6.922;2023-03-01T01:44:10;8.00;;;4.90;;
2502;SDS011;1262;50.918;6.922;2023-03-01T01:46:39;6.07;;;4.80;;
2502;SDS011;1262;50.918;6.922;2023-03-01T01:49:07;6.10;;;4.95;;
2502;SDS011;1262;50.918;6.922;2023-03-01T01:51:40;5.75;;;5.18;;
2502;SDS011;1262;50.918;6.922;2023-03-01T01:54:10;11.00;;;5.78;;
2502;SDS011;1262;50.918;6.922;2023-03-01T01:56:39;9.30;;;5.80;;
2502;SDS011;1262;50.918;6.922;2023-03-01T01:59:08;7.93;;;5.22;;
2502;SDS011;1262;50.918;6.922;2023-03-01T02:01:36;8.65;;;5.70;;
2502;SDS011;1262;50.918;6.922;2023-03-01T02:04:05;7.80;;;5.35;;
2502;SDS011;1262;50.918;6.922;2023-03-01T02:06:33;7.18;;;5.10;;
2502;SDS011;1262;50.918;6.922;2023-03-01T02:09:02;7.80;;;5.40;;
2502;SDS011;1262;50.918;6.922;2023-03-01T02:11:31;9.02;;;6.25;;
2502;SDS011;1262;50.918;6.922;2023-03-01T02:13:59;6.68;;;4.80;;
2502;SDS011;1262;50.918;6.922;2023-03-01T02:16:26;8.23;;;5.30;;
2502;SDS011;1262;50.918;6.922;2023-03-01T02:18:54;8.88;;;4.78;;
2502;SDS011;1262;50.918;6.922;2023-03-01T02:21:27;7.75;;;5.50;;
2502;SDS011;1262;50.918;6.922;2023-03-01T02:23:56;7.78;;;5.15;;
2502;SDS011;1262;50.918;6.922;2023-03-01T02:26:27;7.88;;;6.20;;
2502;SDS011;1262;50.918;6.922;2023-03-01T02:28:58;6.70;;;4.88;;
2502;SDS011;1262;50.918;6.922;2023-03-01T02:31:25;7.88;;;4.93;;
2502;SDS011;1262;50.918;6.922;2023-03-01T02:34:08;7.63;;;5.75;;
2502;SDS011;1262;50.918;6.922;2023-03-01T02:36:37;6.95;;;5.47;;
2502;SDS011;1262;50.918;6.922;2023-03-01T02:39:06;5.75;;;4.82;;
2502;SDS011;1262;50.918;6.922;2023-03-01T02:41:39;6.95;;;5.55;;
2502;SDS011;1262;50.918;6.922;2023-03-01T02:44:09;6.68;;;4.90;;
2502;SDS011;1262;50.918;6.922;2023-03-01T02:46:41;8.60;;;5.93;;
2502;SDS011;1262;50.918;6.922;2023-03-01T02:49:22;8.80;;;5.88;;
2502;SDS011;1262;50.918;6.922;2023-03-01T02:51:56;8.85;;;5.50;;
2502;SDS011;1262;50.918;6.922;2023-03-01T02:54:28;6.43;;;5.25;;
2502;SDS011;1262;50.918;6.922;2023-03-01T02:56:58;8.57;;;5.82;;
2502;SDS011;1262;50.918;6.922;2023-03-01T02:59:28;6.63;;;5.82;;
2502;SDS011;1262;50.918;6.922;2023-03-01T03:01:55;7.45;;;5.47;;
2502;SDS011;1262;50.918;6.922;2023-03-01T03:04:23;8.07;;;5.35;;
2502;SDS011;1262;50.918;6.922;2023-03-01T03:06:50;5.68;;;4.90;;
2502;SDS011;1262;50.918;6.922;2023-03-01T03:09:18;8.70;;;4.80;;
2502;SDS011;1262;50.918;6.922;2023-03-01T03:11:45;8.75;;;5.30;;
2502;SDS011;1262;50.918;6.922;2023-03-01T03:14:13;7.55;;;5.45;;
2502;SDS011;1262;50.918;6.922;2023-03-01T03:16:43;5.88;;;4.57;;
2502;SDS011;1262;50.918;6.922;2023-03-01T03:19:10;9.50;;;5.47;;
2502;SDS011;1262;50.918;6.922;2023-03-01T03:21:37;9.75;;;5.60;;
2502;SDS011;1262;50.918;6.922;2023-03-01T03:24:05;10.07;;;5.32;;
2502;SDS011;1262;50.918;6.922;2023-03-01T03:26:32;7.90;;;5.38;;
2502;SDS011;1262;50.918;6.922;2023-03-01T03:28:59;9.57;;;5.97;;
2502;SDS011;1262;50.918;6.922;2023-03-01T03:31:27;8.70;;;5.20;;
2502;SDS011;1262;50.918;6.922;2023-03-01T03:33:55;8.13;;;5.45;;
2502;SDS011;1262;50.918;6.922;2023-03-01T03:36:23;6.93;;;5.30;;
2502;SDS011;1262;50.918;6.922;2023-03-01T03:38:51;12.43;;;5.78;;
2502;SDS011;1262;50.918;6.922;2023-03-01T03:41:18;7.30;;;5.63;;
2502;SDS011;1262;50.918;6.922;2023-03-01T03:43:45;8.32;;;5.80;;
2502;SDS011;1262;50.918;6.922;2023-03-01T03:46:13;6.93;;;5.22;;
2502;SDS011;1262;50.918;6.922;2023-03-01T03:48:42;8.35;;;5.68;;
2502;SDS011;1262;50.918;6.922;2023-03-01T03:51:11;9.75;;;5.65;;
2502;SDS011;1262;50.918;6.922;2023-03-01T03:53:39;10.02;;;6.55;;
2502;SDS011;1262;50.918;6.922;2023-03-01T03:56:06;9.43;;;5.93;;
2502;SDS011;1262;50.918;6.922;2023-03-01T03:58:33;8.10;;;5.63;;
2502;SDS011;1262;50.918;6.922;2023-03-01T04:01:00;9.27;;;4.80;;
2502;SDS011;1262;50.918;6.922;2023-03-01T04:03:28;8.15;;;6.60;;
2502;SDS011;1262;50.918;6.922;2023-03-01T04:05:57;10.02;;;6.72;;
2502;SDS011;1262;50.918;6.922;2023-03-01T04:08:25;9.50;;;6.22;;
2502;SDS011;1262;50.918;6.922;2023-03-01T04:10:56;11.95;;;6.88;;
2502;SDS011;1262;50.918;6.922;2023-03-01T04:13:24;9.63;;;6.60;;
2502;SDS011;1262;50.918;6.922;2023-03-01T04:15:52;11.40;;;6.45;;
2502;SDS011;1262;50.918;6.922;2023-03-01T04:18:20;6.82;;;5.43;;
2502;SDS011;1262;50.918;6.922;2023-03-01T04:20:47;10.70;;;6.90;;
2502;SDS011;1262;50.918;6.922;2023-03-01T04:23:17;9.20;;;6.25;;
2502;SDS011;1262;50.918;6.922;2023-03-01T04:25:47;8.35;;;6.70;;
2502;SDS011;1262;50.918;6.922;2023-03-01T04:28:18;11.07;;;7.30;;
2502;SDS011;1262;50.918;6.922;2023-03-01T04:30:45;9.35;;;7.00;;
2502;SDS011;1262;50.918;6.922;2023-03-01T04:33:13;10.65;;;7.03;;
2502;SDS011;1262;50.918;6.922;2023-03-01T04:35:40;11.75;;;7.18;;
2502;SDS011;1262;50.918;6.922;2023-03-01T04:38:07;11.55;;;8.20;;
2502;SDS011;1262;50.918;6.922;2023-03-01T04:40:34;11.80;;;7.70;;
2502;SDS011;1262;50.918;6.922;2023-03-01T04:43:03;8.40;;;6.60;;
2502;SDS011;1262;50.918;6.922;2023-03-01T04:45:31;14.63;;;8.63;;
2502;SDS011;1262;50.918;6.922;2023-03-01T04:47:59;10.40;;;6.15;;
2502;SDS011;1262;50.918;6.922;2023-03-01T04:50:26;13.55;;;8.50;;
2502;SDS011;1262;50.918;6.922;2023-03-01T04:52:53;11.50;;;6.57;;
2502;SDS011;1262;50.918;6.922;2023-03-01T04:55:23;12.32;;;7.75;;
2502;SDS011;1262;50.918;6.922;2023-03-01T04:57:50;9.75;;;6.55;;
2502;SDS011;1262;50.918;6.922;2023-03-01T05:00:19;11.77;;;7.65;;
2502;SDS011;1262;50.918;6.922;2023-03-01T05:02:47;14.13;;;8.45;;
2502;SDS011;1262;50.918;6.922;2023-03-01T05:05:18;10.43;;;6.78;;
2502;SDS011;1262;50.918;6.922;2023-03-01T05:07:45;12.85;;;7.63;;
2502;SDS011;1262;50.918;6.922;2023-03-01T05:10:12;12.85;;;7.78;;
2502;SDS011;1262;50.918;6.922;2023-03-01T05:12:39;14.05;;;7.47;;
2502;SDS011;1262;50.918;6.922;2023-03-01T05:15:06;12.75;;;7.95;;
2502;SDS011;1262;50.918;6.922;2023-03-01T05:17:35;12.05;;;8.00;;
2502;SDS011;1262;50.918;6.922;2023-03-01T05:20:02;14.23;;;7.75;;
2502;SDS011;1262;50.918;6.922;2023-03-01T05:22:33;11.00;;;6.82;;
2502;SDS011;1262;50.918;6.922;2023-03-01T05:25:00;10.35;;;6.90;;
2502;SDS011;1262;50.918;6.922;2023-03-01T05:27:27;13.75;;;7.18;;
2502;SDS011;1262;50.918;6.922;2023-03-01T05:29:54;10.07;;;7.65;;
2502;SDS011;1262;50.918;6.922;2023-03-01T05:32:21;12.75;;;7.82;;
2502;SDS011;1262;50.918;6.922;2023-03-01T05:34:50;10.95;;;6.80;;
2502;SDS011;1262;50.918;6.922;2023-03-01T05:37:20;13.05;;;8.07;;
2502;SDS011;1262;50.918;6.922;2023-03-01T05:39:47;11.48;;;8.80;;
2502;SDS011;1262;50.918;6.922;2023-03-01T05:42:15;14.63;;;9.05;;
2502;SDS011;1262;50.918;6.922;2023-03-01T05:44:43;9.77;;;6.32;;
2502;SDS011;1262;50.918;6.922;2023-03-01T05:47:10;11.25;;;8.05;;
2502;SDS011;1262;50.918;6.922;2023-03-01T05:49:37;13.63;;;7.35;;
2502;SDS011;1262;50.918;6.922;2023-03-01T05:52:05;12.05;;;8.43;;
2502;SDS011;1262;50.918;6.922;2023-03-01T05:54:32;10.07;;;7.35;;
2502;SDS011;1262;50.918;6.922;2023-03-01T05:57:00;12.82;;;7.75;;
2502;SDS011;1262;50.918;6.922;2023-03-01T05:59:27;11.07;;;7.72;;
2502;SDS011;1262;50.918;6.922;2023-03-01T06:01:54;9.10;;;7.00;;
2502;SDS011;1262;50.918;6.922;2023-03-01T06:04:21;11.80;;;7.47;;
2502;SDS011;1262;50.918;6.922;2023-03-01T06:06:48;11.57;;;8.15;;
2502;SDS011;1262;50.918;6.922;2023-03-01T06:09:16;14.18;;;8.88;;
2502;SDS011;1262;50.918;6.922;2023-03-01T06:11:43;15.60;;;8.40;;
2502;SDS011;1262;50.918;6.922;2023-03-01T06:14:11;14.57;;;8.35;;
2502;SDS011;1262;50.918;6.922;2023-03-01T06:16:39;13.40;;;7.38;;
2502;SDS011;1262;50.918;6.922;2023-03-01T06:19:06;11.75;;;7.97;;
2502;SDS011;1262;50.918;6.922;2023-03-01T06:21:33;10.80;;;7.53;;
2502;SDS011;1262;50.918;6.922;2023-03-01T06:24:00;14.07;;;8.05;;
2502;SDS011;1262;50.918;6.922;2023-03-01T06:26:29;13.73;;;7.85;;
2502;SDS011;1262;50.918;6.922;2023-03-01T06:28:56;12.35;;;7.40;;
2502;SDS011;1262;50.918;6.922;2023-03-01T06:31:23;16.33;;;8.02;;
2502;SDS011;1262;50.918;6.922;2023-03-01T06:33:50;11.38;;;8.32;;
2502;SDS011;1262;50.918;6.922;2023-03-01T06:36:18;12.93;;;8.18;;
2502;SDS011;1262;50.918;6.922;2023-03-01T06:38:46;12.52;;;7.22;;
2502;SDS011;1262;50.918;6.922;2023-03-01T06:41:13;11.82;;;9.40;;
2502;SDS011;1262;50.918;6.922;2023-03-01T06:43:41;11.68;;;8.00;;
2502;SDS011;1262;50.918;6.922;2023-03-01T06:46:09;10.38;;;7.25;;
2502;SDS011;1262;50.918;6.922;2023-03-01T06:48:36;11.57;;;8.85;;
2502;SDS011;1262;50.918;6.922;2023-03-01T06:51:03;12.32;;;7.68;;
2502;SDS011;1262;50.918;6.922;2023-03-01T06:53:30;12.93;;;7.38;;
2502;SDS011;1262;50.918;6.922;2023-03-01T06:55:57;10.50;;;7.50;;
2502;SDS011;1262;50.918;6.922;2023-03-01T06:58:25;14.23;;;8.40;;
2502;SDS011;1262;50.918;6.922;2023-03-01T07:00:53;11.20;;;7.82;;
2502;SDS011;1262;50.918;6.922;2023-03-01T07:03:20;10.90;;;7.50;;
2502;SDS011;1262;50.918;6.922;2023-03-01T07:05:48;9.20;;;6.47;;
2502;SDS011;1262;50.918;6.922;2023-03-01T07:08:17;16.65;;;8.07;;
2502;SDS011;1262;50.918;6.922;2023-03-01T07:10:44;18.00;;;7.55;;
2502;SDS011;1262;50.918;6.922;2023-03-01T07:13:11;13.55;;;9.20;;
2502;SDS011;1262;50.918;6.922;2023-03-01T07:15:39;13.98;;;8.20;;
2502;SDS011;1262;50.918;6.922;2023-03-01T07:18:08;13.18;;;8.77;;
2502;SDS011;1262;50.918;6.922;2023-03-01T07:20:35;12.82;;;7.93;;
2502;SDS011;1262;50.918;6.922;2023-03-01T07:23:02;13.00;;;8.35;;
2502;SDS011;1262;50.918;6.922;2023-03-01T07:25:30;11.85;;;8.80;;
2502;SDS011;1262;50.918;6.922;2023-03-01T07:27:57;13.48;;;8.68;;
2502;SDS011;1262;50.918;6.922;2023-03-01T07:30:24;9.70;;;6.72;;
2502;SDS011;1262;50.918;6.922;2023-03-01T07:32:53;13.43;;;9.00;;
2502;SDS011;1262;50.918;6.922;2023-03-01T07:35:21;15.20;;;7.60;;
2502;SDS011;1262;50.918;6.922;2023-03-01T07:37:49;14.00;;;9.02;;
2502;SDS011;1262;50.918;6.922;2023-03-01T07:40:16;11.55;;;7.90;;
2502;SDS011;1262;50.918;6.922;2023-03-01T07:42:43;12.63;;;8.90;;
2502;SDS011;1262;50.918;6.922;2023-03-01T07:45:10;10.48;;;7.78;;
2502;SDS011;1262;50.918;6.922;2023-03-01T07:47:38;12.65;;;8.63;;
2502;SDS011;1262;50.918;6.922;2023-03-01T07:50:05;14.25;;;8.43;;
2502;SDS011;1262;50.918;6.922;2023-03-01T07:52:45;16.80;;;9.15;;
2502;SDS011;1262;50.918;6.922;2023-03-01T07:55:12;12.05;;;8.13;;
2502;SDS011;1262;50.918;6.922;2023-03-01T07:57:39;14.95;;;9.27;;
2502;SDS011;1262;50.918;6.922;2023-03-01T08:00:07;17.27;;;7.72;;
2502;SDS011;1262;50.918;6.922;2023-03-01T08:02:34;13.38;;;8.77;;
2502;SDS011;1262;50.918;6.922;2023-03-01T08:05:02;15.23;;;9.25;;
2502;SDS011;1262;50.918;6.922;2023-03-01T08:07:29;13.40;;;8.70;;
2502;SDS011;1262;50.918;6.922;2023-03-01T08:09:57;15.43;;;9.20;;
2502;SDS011;1262;50.918;6.922;2023-03-01T08:12:24;13.55;;;9.25;;
2502;SDS011;1262;50.918;6.922;2023-03-01T08:14:53;15.07;;;10.25;;
2502;SDS011;1262;50.918;6.922;2023-03-01T08:17:20;15.20;;;7.93;;
2502;SDS011;1262;50.918;6.922;2023-03-01T08:19:47;16.40;;;9.30;;
2502;SDS011;1262;50.918;6.922;2023-03-01T08:22:14;10.60;;;8.77;;
2502;SDS011;1262;50.918;6.922;2023-03-01T08:24:41;16.48;;;9.52;;
2502;SDS011;1262;50.918;6.922;2023-03-01T08:27:10;10.52;;;8.68;;
2502;SDS011;1262;50.918;6.922;2023-03-01T08:29:38;13.93;;;8.77;;
2502;SDS011;1262;50.918;6.922;2023-03-01T08:32:05;14.68;;;9.40;;
2502;SDS011;1262;50.918;6.922;2023-03-01T08:34:32;14.55;;;9.27;;
2502;SDS011;1262;50.918;6.922;2023-03-01T08:37:00;14.50;;;8.48;;
2502;SDS011;1262;50.918;6.922;2023-03-01T08:39:28;17.05;;;9.95;;
2502;SDS011;1262;50.918;6.922;2023-03-01T08:41:55;13.30;;;8.48;;
2502;SDS011;1262;50.918;6.922;2023-03-01T08:44:23;12.90;;;10.13;;
2502;SDS011;1262;50.918;6.922;2023-03-01T08:46:50;14.00;;;9.98;;
2502;SDS011;1262;50.918;6.922;2023-03-01T08:49:19;13.40;;;9.50;;
2502;SDS011;1262;50.918;6.922;2023-03-01T08:51:47;13.50;;;8.65;;
2502;SDS011;1262;50.918;6.922;2023-03-01T08:54:15;14.48;;;9.55;;
2502;SDS011;1262;50.918;6.922;2023-03-01T08:56:43;16.42;;;9.98;;
2502;SDS011;1262;50.918;6.922;2023-03-01T08:59:10;15.52;;;10.05;;
2502;SDS011;1262;50.918;6.922;2023-03-01T09:01:39;11.32;;;8.18;;
2502;SDS011;1262;50.918;6.922;2023-03-01T09:04:08;13.27;;;8.98;;
2502;SDS011;1262;50.918;6.922;2023-03-01T09:06:35;14.25;;;9.50;;
2502;SDS011;1262;50.918;6.922;2023-03-01T09:09:03;14.10;;;8.82;;
2502;SDS011;1262;50.918;6.922;2023-03-01T09:11:30;14.98;;;8.80;;
2502;SDS011;1262;50.918;6.922;2023-03-01T09:13:58;14.63;;;10.18;;
2502;SDS011;1262;50.918;6.922;2023-03-01T09:16:25;14.25;;;9.30;;
2502;SDS011;1262;50.918;6.922;2023-03-01T09:18:56;16.65;;;9.20;;
2502;SDS011;1262;50.918;6.922;2023-03-01T09:21:23;14.50;;;9.20;;
2502;SDS011;1262;50.918;6.922;2023-03-01T09:23:50;13.18;;;8.90;;
2502;SDS011;1262;50.918;6.922;2023-03-01T09:26:18;15.75;;;8.80;;
2502;SDS011;1262;50.918;6.922;2023-03-01T09:28:46;12.95;;;8.48;;
2502;SDS011;1262;50.918;6.922;2023-03-01T09:31:14;15.48;;;9.00;;
2502;SDS011;1262;50.918;6.922;2023-03-01T09:33:42;12.88;;;8.82;;
2502;SDS011;1262;50.918;6.922;2023-03-01T09:36:13;11.88;;;8.25;;
2502;SDS011;1262;50.918;6.922;2023-03-01T09:38:40;9.45;;;7.68;;
2502;SDS011;1262;50.918;6.922;2023-03-01T09:41:09;14.55;;;9.02;;
2502;SDS011;1262;50.918;6.922;2023-03-01T09:43:39;10.20;;;8.30;;
2502;SDS011;1262;50.918;6.922;2023-03-01T09:46:09;11.02;;;8.38;;
2502;SDS011;1262;50.918;6.922;2023-03-01T09:48:37;12.27;;;8.48;;
2502;SDS011;1262;50.918;6.922;2023-03-01T09:51:06;12.88;;;8.05;;
2502;SDS011;1262;50.918;6.922;2023-03-01T09:53:37;10.63;;;8.27;;
2502;SDS011;1262;50.918;6.922;2023-03-01T09:56:05;10.60;;;8.32;;
2502;SDS011;1262;50.918;6.922;2023-03-01T09:58:40;14.50;;;8.63;;
2502;SDS011;1262;50.918;6.922;2023-03-01T10:01:23;13.13;;;7.75;;
2502;SDS011;1262;50.918;6.922;2023-03-01T10:03:57;15.82;;;8.80;;
2502;SDS011;1262;50.918;6.922;2023-03-01T10:06:27;16.40;;;8.02;;
2502;SDS011;1262;50.918;6.922;2023-03-01T10:08:57;9.82;;;7.85;;
2502;SDS011;1262;50.918;6.922;2023-03-01T10:11:25;16.00;;;8.27;;
2502;SDS011;1262;50.918;6.922;2023-03-01T10:13:58;14.48;;;8.95;;
2502;SDS011;1262;50.918;6.922;2023-03-01T10:16:28;10.63;;;7.55;;
2502;SDS011;1262;50.918;6.922;2023-03-01T10:19:01;13.73;;;8.65;;
2502;SDS011;1262;50.918;6.922;2023-03-01T10:21:30;15.60;;;9.40;;
2502;SDS011;1262;50.918;6.922;2023-03-01T10:24:04;13.07;;;8.18;;
2502;SDS011;1262;50.918;6.922;2023-03-01T10:26:38;11.80;;;7.70;;
2502;SDS011;1262;50.918;6.922;2023-03-01T10:29:07;10.80;;;8.30;;
2502;SDS011;1262;50.918;6.922;2023-03-01T10:31:39;20.30;;;9.65;;
2502;SDS011;1262;50.918;6.922;2023-03-01T10:34:09;12.23;;;9.27;;
2502;SDS011;1262;50.918;6.922;2023-03-01T10:36:36;11.10;;;8.05;;
2502;SDS011;1262;50.918;6.922;2023-03-01T10:39:11;12.13;;;7.80;;
2502;SDS011;1262;50.918;6.922;2023-03-01T10:41:40;12.10;;;8.05;;
2502;SDS011;1262;50.918;6.922;2023-03-01T10:44:11;13.55;;;8.82;;
2502;SDS011;1262;50.918;6.922;2023-03-01T10:47:00;15.07;;;8.85;;
2502;SDS011;1262;50.918;6.922;2023-03-01T10:49:27;11.27;;;7.50;;
2502;SDS011;1262;50.918;6.922;2023-03-01T10:51:54;11.55;;;8.25;;
2502;SDS011;1262;50.918;6.922;2023-03-01T10:54:22;14.52;;;8.60;;
2502;SDS011;1262;50.918;6.922;2023-03-01T10:56:50;11.13;;;8.18;;
2502;SDS011;1262;50.918;6.922;2023-03-01T10:59:21;11.73;;;7.60;;
2502;SDS011;1262;50.918;6.922;2023-03-01T11:02:00;12.63;;;10.02;;
2502;SDS011;1262;50.918;6.922;2023-03-01T11:04:29;10.93;;;7.78;;
2502;SDS011;1262;50.918;6.922;2023-03-01T11:07:00;13.00;;;7.80;;
2502;SDS011;1262;50.918;6.922;2023-03-01T11:09:30;13.48;;;8.45;;
2502;SDS011;1262;50.918;6.922;2023-03-01T11:12:02;13.13;;;8.77;;
2502;SDS011;1262;50.918;6.922;2023-03-01T11:14:31;10.20;;;7.40;;
2502;SDS011;1262;50.918;6.922;2023-03-01T11:17:00;11.57;;;8.30;;
2502;SDS011;1262;50.918;6.922;2023-03-01T11:19:29;12.68;;;7.93;;
2502;SDS011;1262;50.918;6.922;2023-03-01T11:21:58;10.10;;;7.45;;
2502;SDS011;1262;50.918;6.922;2023-03-01T11:24:29;10.80;;;7.85;;
2502;SDS011;1262;50.918;6.922;2023-03-01T11:26:57;13.85;;;7.90;;
2502;SDS011;1262;50.918;6.922;2023-03-01T11:29:27;16.27;;;7.97;;
2502;SDS011;1262;50.918;6.922;2023-03-01T11:31:57;14.98;;;8.25;;
2502;SDS011;1262;50.918;6.922;2023-03-01T11:34:29;14.57;;;7.40;;
2502;SDS011;1262;50.918;6.922;2023-03-01T11:37:01;14.60;;;8.55;;
2502;SDS011;1262;50.918;6.922;2023-03-01T11:39:31;13.95;;;9.48;;
2502;SDS011;1262;50.918;6.922;2023-03-01T11:42:02;14.75;;;8.77;;
2502;SDS011;1262;50.918;6.922;2023-03-01T11:44:31;12.90;;;8.80;;
2502;SDS011;1262;50.918;6.922;2023-03-01T11:47:15;14.30;;;8.93;;
2502;SDS011;1262;50.918;6.922;2023-03-01T11:49:58;11.00;;;7.00;;
2502;SDS011;1262;50.918;6.922;2023-03-01T11:52:32;11.13;;;7.68;;
2502;SDS011;1262;50.918;6.922;2023-03-01T11:55:10;14.95;;;7.78;;
2502;SDS011;1262;50.918;6.922;2023-03-01T11:57:43;12.45;;;7.20;;
2502;SDS011;1262;50.918;6.922;2023-03-01T12:00:14;14.13;;;8.52;;
2502;SDS011;1262;50.918;6.922;2023-03-01T12:05:34;13.98;;;7.50;;
2502;SDS011;1262;50.918;6.922;2023-03-01T12:08:08;11.15;;;7.28;;
2502;SDS011;1262;50.918;6.922;2023-03-01T12:10:38;15.98;;;9.20;;
2502;SDS011;1262;50.918;6.922;2023-03-01T12:13:14;10.73;;;7.10;;
2502;SDS011;1262;50.918;6.922;2023-03-01T12:15:48;11.02;;;6.63;;
2502;SDS011;1262;50.918;6.922;2023-03-01T12:21:09;11.50;;;7.78;;
2502;SDS011;1262;50.918;6.922;2023-03-01T12:23:49;11.38;;;7.13;;
2502;SDS011;1262;50.918;6.922;2023-03-01T12:26:20;10.77;;;7.80;;
2502;SDS011;1262;50.918;6.922;2023-03-01T12:28:51;12.18;;;7.95;;
2502;SDS011;1262;50.918;6.922;2023-03-01T12:31:29;10.40;;;7.32;;
2502;SDS011;1262;50.918;6.922;2023-03-01T12:34:00;11.40;;;7.97;;
2502;SDS011;1262;50.918;6.922;2023-03-01T12:36:35;10.32;;;7.15;;
2502;SDS011;1262;50.918;6.922;2023-03-01T12:39:11;13.00;;;7.20;;
2502;SDS011;1262;50.918;6.922;2023-03-01T12:41:50;9.13;;;6.68;;
2502;SDS011;1262;50.918;6.922;2023-03-01T12:44:28;12.52;;;8.18;;
2502;SDS011;1262;50.918;6.922;2023-03-01T12:47:07;11.77;;;8.18;;
2502;SDS011;1262;50.918;6.922;2023-03-01T12:49:38;11.45;;;7.35;;
2502;SDS011;1262;50.918;6.922;2023-03-01T12:52:09;13.25;;;8.50;;
2502;SDS011;1262;50.918;6.922;2023-03-01T12:54:38;9.77;;;6.65;;
2502;SDS011;1262;50.918;6.922;2023-03-01T12:57:07;13.30;;;8.02;;
2502;SDS011;1262;50.918;6.922;2023-03-01T12:59:38;10.55;;;7.20;;
2502;SDS011;1262;50.918;6.922;2023-03-01T13:02:09;15.07;;;8.32;;
2502;SDS011;1262;50.918;6.922;2023-03-01T13:04:44;10.30;;;7.90;;
2502;SDS011;1262;50.918;6.922;2023-03-01T13:07:16;11.05;;;7.70;;
2502;SDS011;1262;50.918;6.922;2023-03-01T13:09:48;14.55;;;8.05;;
2502;SDS011;1262;50.918;6.922;2023-03-01T13:15:26;11.57;;;7.78;;
2502;SDS011;1262;50.918;6.922;2023-03-01T13:17:53;7.68;;;6.03;;
2502;SDS011;1262;50.918;6.922;2023-03-01T13:20:21;13.38;;;7.65;;
2502;SDS011;1262;50.918;6.922;2023-03-01T13:22:59;15.95;;;7.03;;
2502;SDS011;1262;50.918;6.922;2023-03-01T13:25:28;11.65;;;7.50;;
2502;SDS011;1262;50.918;6.922;2023-03-01T13:28:32;11.48;;;7.22;;
2502;SDS011;1262;50.918;6.922;2023-03-01T13:30:55;10.93;;;7.90;;
2502;SDS011;1262;50.918;6.922;2023-03-01T13:33:42;11.15;;;8.27;;
2502;SDS011;1262;50.918;6.922;2023-03-01T13:36:10;13.07;;;8.00;;
2502;SDS011;1262;50.918;6.922;2023-03-01T13:38:45;15.35;;;8.32;;
2502;SDS011;1262;50.918;6.922;2023-03-01T13:41:14;10.07;;;6.63;;
2502;SDS011;1262;50.918;6.922;2023-03-01T13:43:41;12.98;;;7.80;;
2502;SDS011;1262;50.918;6.922;2023-03-01T13:46:10;11.38;;;7.63;;
2502;SDS011;1262;50.918;6.922;2023-03-01T13:48:38;10.85;;;7.22;;
2502;SDS011;1262;50.918;6.922;2023-03-01T13:51:07;13.93;;;8.20;;
2502;SDS011;1262;50.918;6.922;2023-03-01T13:53:35;14.18;;;7.82;;
2502;SDS011;1262;50.918;6.922;2023-03-01T13:56:06;12.30;;;7.20;;
2502;SDS011;1262;50.918;6.922;2023-03-01T13:58:44;8.00;;;6.63;;
2502;SDS011;1262;50.918;6.922;2023-03-01T14:01:18;12.18;;;7.93;;
2502;SDS011;1262;50.918;6.922;2023-03-01T14:03:47;11.45;;;7.45;;
2502;SDS011;1262;50.918;6.922;2023-03-01T14:06:15;9.35;;;6.82;;
2502;SDS011;1262;50.918;6.922;2023-03-01T14:08:44;9.50;;;6.80;;
2502;SDS011;1262;50.918;6.922;2023-03-01T14:11:24;9.77;;;7.18;;
2502;SDS011;1262;50.918;6.922;2023-03-01T14:16:56;11.43;;;7.05;;
2502;SDS011;1262;50.918;6.922;2023-03-01T14:19:26;8.52;;;6.90;;
2502;SDS011;1262;50.918;6.922;2023-03-01T14:22:12;11.98;;;6.55;;
2502;SDS011;1262;50.918;6.922;2023-03-01T14:24:40;9.65;;;6.40;;
2502;SDS011;1262;50.918;6.922;2023-03-01T14:27:11;11.40;;;6.43;;
2502;SDS011;1262;50.918;6.922;2023-03-01T14:29:39;10.38;;;6.10;;
2502;SDS011;1262;50.918;6.922;2023-03-01T14:32:17;10.60;;;6.40;;
2502;SDS011;1262;50.918;6.922;2023-03-01T14:34:45;9.48;;;6.50;;
2502;SDS011;1262;50.918;6.922;2023-03-01T14:37:18;9.65;;;6.32;;
2502;SDS011;1262;50.918;6.922;2023-03-01T14:39:46;7.45;;;6.60;;
2502;SDS011;1262;50.918;6.922;2023-03-01T14:42:13;10.75;;;7.15;;
2502;SDS011;1262;50.918;6.922;2023-03-01T14:44:40;12.90;;;7.03;;
2502;SDS011;1262;50.918;6.922;2023-03-01T14:47:10;11.10;;;6.50;;
2502;SDS011;1262;50.918;6.922;2023-03-01T14:49:40;12.73;;;7.70;;
2502;SDS011;1262;50.918;6.922;2023-03-01T14:52:14;10.85;;;7.07;;
2502;SDS011;1262;50.918;6.922;2023-03-01T14:54:44;9.18;;;6.55;;
2502;SDS011;1262;50.918;6.922;2023-03-01T14:57:14;11.32;;;7.22;;
2502;SDS011;1262;50.918;6.922;2023-03-01T14:59:41;10.63;;;7.75;;
2502;SDS011;1262;50.918;6.922;2023-03-01T15:02:10;7.55;;;6.47;;
2502;SDS011;1262;50.918;6.922;2023-03-01T15:04:43;9.93;;;7.25;;
2502;SDS011;1262;50.918;6.922;2023-03-01T15:07:12;8.77;;;6.32;;
2502;SDS011;1262;50.918;6.922;2023-03-01T15:09:40;10.77;;;7.65;;
2502;SDS011;1262;50.918;6.922;2023-03-01T15:14:53;8.50;;;7.03;;
2502;SDS011;1262;50.918;6.922;2023-03-01T15:17:23;10.25;;;7.35;;
2502;SDS011;1262;50.918;6.922;2023-03-01T15:19:54;8.77;;;7.13;;
2502;SDS011;1262;50.918;6.922;2023-03-01T15:22:22;10.55;;;6.60;;
2502;SDS011;1262;50.918;6.922;2023-03-01T15:24:49;7.95;;;5.68;;
2502;SDS011;1262;50.918;6.922;2023-03-01T15:27:17;9.57;;;6.45;;
2502;SDS011;1262;50.918;6.922;2023-03-01T15:29:49;9.02;;;6.65;;
2502;SDS011;1262;50.918;6.922;2023-03-01T15:32:24;12.40;;;6.55;;